Time;durP1;ratioP1;P1;durP2;ratioP2;P2;SDS_P1;SDS_P2;PMS_P1;PMS_P2;Temp;Humidity;BMP_temperature;BMP_pressure;BME280_temperature;BME280_humidity;BME280_pressure;Samples;Min_cycle;Max_cycle;Signal;HPM_P1;HPM_P2
2022/01/13 00:00:01;;;;;;;27.20;12.38;;;;;;;1.96;100.00;103240.00;4919113;28;20047;-86
2022/01/13 00:02:32;;;;;;;21.33;13.57;;;;;;;1.90;100.00;103237.88;4935622;28;20095;-86
2022/01/13 00:04:59;;;;;;;22.40;13.23;;;;;;;1.87;100.00;103245.44;4932489;28;20055;-86
2022/01/13 00:07:28;;;;;;;25.42;14.52;;;;;;;1.84;100.00;103245.25;4933776;28;20133;-86
2022/01/13 00:09:57;;;;;;;29.30;14.25;;;;;;;1.80;100.00;103236.38;4934516;28;20047;-86
2022/01/13 00:12:28;;;;;;;23.63;13.35;;;;;;;1.74;100.00;103246.28;4919842;28;20051;-86
2022/01/13 00:15:10;;;;;;;28.83;13.88;;;;;;;1.69;100.00;103245.06;4937953;28;20051;-86
2022/01/13 00:20:47;;;;;;;31.30;15.07;;;;;;;1.74;100.00;103250.56;4946794;28;20132;-86
2022/01/13 00:26:01;;;;;;;28.23;17.15;;;;;;;1.86;100.00;103242.75;4958367;28;20092;-86
2022/01/13 00:28:28;;;;;;;38.97;18.60;;;;;;;1.90;100.00;103235.31;4937355;28;20496;-86
2022/01/13 00:30:58;;;;;;;33.35;17.15;;;;;;;1.94;100.00;103239.91;4939171;28;20054;-87
2022/01/13 00:33:26;;;;;;;39.25;18.73;;;;;;;1.99;100.00;103237.63;4957235;28;20057;-86
2022/01/13 00:35:58;;;;;;;35.90;18.85;;;;;;;2.01;100.00;103236.06;4953932;28;20109;-87
2022/01/13 00:38:26;;;;;;;42.88;19.75;;;;;;;2.03;100.00;103229.28;4941589;28;20454;-86
2022/01/13 00:40:53;;;;;;;37.28;21.45;;;;;;;2.02;100.00;103231.78;4966344;28;20077;-86
2022/01/13 00:43:20;;;;;;;42.63;20.33;;;;;;;2.00;100.00;103241.13;4969684;28;20493;-87
2022/01/13 00:45:48;;;;;;;38.17;20.92;;;;;;;1.96;100.00;103238.31;4963817;28;20058;-86
2022/01/13 00:48:15;;;;;;;45.33;22.60;;;;;;;1.93;100.00;103230.38;4915225;28;20051;-86
2022/01/13 00:50:42;;;;;;;48.05;23.75;;;;;;;1.91;100.00;103239.69;4946845;28;20074;-87
2022/01/13 00:53:09;;;;;;;53.83;25.33;;;;;;;1.89;100.00;103240.38;4918319;28;20468;-86
2022/01/13 00:55:47;;;;;;;45.40;20.40;;;;;;;1.88;100.00;103242.06;4915487;28;20368;-86
2022/01/13 00:58:15;;;;;;;45.28;22.60;;;;;;;1.87;100.00;103237.69;4936899;28;20377;-86
2022/01/13 01:00:43;;;;;;;46.38;23.38;;;;;;;1.87;100.00;103245.44;4945545;28;20648;-86
2022/01/13 01:03:11;;;;;;;45.88;22.70;;;;;;;1.89;100.00;103245.53;4949156;28;20047;-86
2022/01/13 01:05:37;;;;;;;47.78;23.33;;;;;;;1.92;100.00;103245.78;4935641;28;20431;-87
2022/01/13 01:08:06;;;;;;;45.92;24.45;;;;;;;1.90;100.00;103249.91;4929312;28;20051;-86
2022/01/13 01:10:33;;;;;;;45.05;23.85;;;;;;;1.91;100.00;103247.44;4935514;28;20058;-86
2022/01/13 01:13:09;;;;;;;47.63;22.65;;;;;;;1.93;100.00;103247.53;4929814;28;20392;-86
2022/01/13 01:15:36;;;;;;;41.65;22.50;;;;;;;1.95;100.00;103253.72;4922646;28;20256;-86
2022/01/13 01:18:12;;;;;;;55.95;25.50;;;;;;;1.93;100.00;103248.44;4939467;28;20393;-86
2022/01/13 01:20:48;;;;;;;55.75;23.85;;;;;;;1.93;100.00;103248.44;4935825;28;20508;-85
2022/01/13 01:23:19;;;;;;;45.72;22.40;;;;;;;1.94;100.00;103254.50;4924905;28;20051;-86
2022/01/13 01:25:58;;;;;;;48.85;24.98;;;;;;;1.93;100.00;103265.63;4949617;28;20194;-86
2022/01/13 01:28:34;;;;;;;46.75;23.33;;;;;;;1.92;100.00;103263.84;4937987;28;20053;-86
2022/01/13 01:31:01;;;;;;;51.70;27.55;;;;;;;1.91;100.00;103264.63;4938034;28;20478;-86
2022/01/13 01:33:27;;;;;;;55.13;27.85;;;;;;;1.88;100.00;103265.31;4931603;28;20081;-86
2022/01/13 01:35:56;;;;;;;54.50;24.77;;;;;;;1.88;100.00;103262.75;4938446;28;20105;-86
2022/01/13 01:38:23;;;;;;;53.42;25.50;;;;;;;1.88;100.00;103262.75;4935368;28;20086;-86
2022/01/13 01:40:49;;;;;;;57.40;26.15;;;;;;;1.88;100.00;103260.16;4939156;28;20043;-86
2022/01/13 01:43:16;;;;;;;57.72;27.27;;;;;;;1.84;100.00;103258.16;4938923;28;20173;-86
2022/01/13 01:45:44;;;;;;;58.38;25.60;;;;;;;1.84;100.00;103260.75;4919277;28;20054;-86
2022/01/13 01:48:18;;;;;;;54.80;26.48;;;;;;;1.86;100.00;103260.84;4953579;28;20053;-86
2022/01/13 01:50:53;;;;;;;56.08;26.73;;;;;;;1.85;100.00;103265.09;4933728;28;20055;-86
2022/01/13 01:53:20;;;;;;;61.90;27.63;;;;;;;1.84;100.00;103257.25;4922320;28;20658;-86
2022/01/13 01:55:46;;;;;;;55.45;26.88;;;;;;;1.83;100.00;103255.47;4934225;28;20468;-86
2022/01/13 01:58:13;;;;;;;57.50;27.75;;;;;;;1.78;100.00;103245.69;4932750;28;20039;-87
2022/01/13 02:00:39;;;;;;;60.63;28.13;;;;;;;1.78;100.00;103245.69;4935125;28;20458;-86
2022/01/13 02:03:07;;;;;;;70.53;30.02;;;;;;;1.80;100.00;103248.41;4918046;28;20145;-86
2022/01/13 02:05:34;;;;;;;67.20;29.90;;;;;;;1.80;100.00;103249.28;4936565;28;20051;-86
2022/01/13 02:08:02;;;;;;;64.28;28.90;;;;;;;1.78;100.00;103244.81;4936883;28;20058;-86
2022/01/13 02:10:28;;;;;;;62.28;29.55;;;;;;;1.80;100.00;103240.66;4918741;28;20043;-86
2022/01/13 02:13:02;;;;;;;57.70;29.23;;;;;;;1.78;100.00;103237.06;4951164;28;20451;-86
2022/01/13 02:15:33;;;;;;;62.03;29.25;;;;;;;1.78;100.00;103237.06;4932813;28;20055;-86
2022/01/13 02:18:02;;;;;;;68.22;30.65;;;;;;;1.80;100.00;103238.09;4937006;28;20066;-86
2022/01/13 02:20:51;;;;;;;72.57;31.13;;;;;;;1.81;100.00;103235.59;4936026;28;20051;-86
2022/01/13 02:23:40;;;;;;;73.45;32.67;;;;;;;1.85;100.00;103233.22;4930732;28;20067;-86
2022/01/13 02:26:10;;;;;;;67.72;33.17;;;;;;;1.84;100.00;103229.75;4936333;28;20058;-86
2022/01/13 02:28:41;;;;;;;73.57;34.50;;;;;;;1.86;100.00;103222.09;4949808;28;20527;-86
2022/01/13 02:31:08;;;;;;;72.85;33.20;;;;;;;1.87;100.00;103222.19;4936828;28;20141;-86
2022/01/13 02:33:35;;;;;;;72.85;31.45;;;;;;;1.85;100.00;103218.59;4936766;28;20055;-86
2022/01/13 02:36:04;;;;;;;65.80;31.52;;;;;;;1.85;100.00;103216.00;4947317;28;20733;-86
2022/01/13 02:38:31;;;;;;;65.50;29.77;;;;;;;1.84;100.00;103209.09;4951108;28;20683;-86
2022/01/13 02:41:00;;;;;;;74.18;32.58;;;;;;;1.84;100.00;103205.59;4931787;28;20047;-85
2022/01/13 02:43:29;;;;;;;68.50;30.45;;;;;;;1.86;100.00;103211.75;4934221;28;20173;-86
2022/01/13 02:48:36;;;;;;;75.72;32.08;;;;;;;1.87;100.00;103210.97;4931099;28;20055;-85
2022/01/13 02:51:04;;;;;;;72.03;32.22;;;;;;;1.84;100.00;103195.25;4924593;28;20047;-86
2022/01/13 02:53:33;;;;;;;83.72;32.25;;;;;;;1.83;100.00;103181.47;4928350;28;20741;-86
2022/01/13 02:56:04;;;;;;;70.93;33.63;;;;;;;1.83;100.00;103181.47;4936968;28;20054;-87
2022/01/13 02:58:35;;;;;;;70.68;31.25;;;;;;;1.87;100.00;103179.97;4953099;28;20043;-86
2022/01/13 03:01:05;;;;;;;60.33;31.30;;;;;;;1.88;100.00;103174.91;4931832;28;20066;-86
2022/01/13 03:03:34;;;;;;;64.72;30.83;;;;;;;1.89;100.00;103165.47;4919650;28;20066;-86
2022/01/13 03:06:13;;;;;;;70.85;32.75;;;;;;;1.91;100.00;103164.78;4949000;28;20047;-86
2022/01/13 03:08:45;;;;;;;68.68;30.40;;;;;;;1.88;100.00;103164.59;4938293;28;20098;-86
2022/01/13 03:11:12;;;;;;;75.75;33.58;;;;;;;1.89;100.00;103166.38;4938493;28;20043;-86
2022/01/13 03:13:39;;;;;;;70.47;31.50;;;;;;;1.85;100.00;103156.59;4916564;28;20055;-86
2022/01/13 03:16:08;;;;;;;71.68;31.05;;;;;;;1.88;100.00;103162.00;4950483;28;20523;-85
2022/01/13 03:18:36;;;;;;;63.60;28.95;;;;;;;1.88;100.00;103158.50;4949571;28;20051;-86
2022/01/13 03:21:04;;;;;;;65.95;30.30;;;;;;;1.90;100.00;103159.50;4934279;28;20055;-86
2022/01/13 03:23:31;;;;;;;76.20;32.15;;;;;;;1.91;100.00;103163.91;4935189;28;20836;-86
2022/01/13 03:25:57;;;;;;;65.10;30.05;;;;;;;1.93;100.00;103164.88;4934710;28;20086;-86
2022/01/13 03:28:30;;;;;;;61.55;27.73;;;;;;;1.96;100.00;103159.94;4951538;28;20137;-86
2022/01/13 03:31:00;;;;;;;68.28;29.08;;;;;;;1.97;100.00;103153.97;4933405;28;20051;-86
2022/01/13 03:33:28;;;;;;;60.80;28.10;;;;;;;1.97;100.00;103159.16;4934664;28;20495;-86
2022/01/13 03:35:55;;;;;;;64.80;27.60;;;;;;;2.01;100.00;103152.47;4952826;28;20047;-86
2022/01/13 03:38:26;;;;;;;64.60;27.60;;;;;;;1.96;100.00;103145.31;4935191;28;20051;-86
2022/01/13 03:40:55;;;;;;;69.07;28.77;;;;;;;1.98;100.00;103146.31;4937603;28;20065;-87
2022/01/13 03:43:22;;;;;;;66.63;27.83;;;;;;;2.00;100.00;103142.97;4937487;28;20054;-86
2022/01/13 03:45:49;;;;;;;66.80;29.95;;;;;;;2.04;100.00;103148.41;4934638;28;20062;-86
2022/01/13 03:48:15;;;;;;;55.13;25.83;;;;;;;2.02;100.00;103139.69;4931829;28;20046;-86
2022/01/13 03:50:44;;;;;;;59.00;26.80;;;;;;;2.04;100.00;103139.78;4919831;28;20055;-86
2022/01/13 03:53:29;;;;;;;60.58;26.30;;;;;;;2.04;100.00;103140.66;4936685;28;20146;-86
2022/01/13 03:56:46;;;;;;;53.60;24.83;;;;;;;2.09;100.00;103138.41;4947321;28;20065;-85
2022/01/13 03:59:56;;;;;;;47.88;23.05;;;;;;;2.05;100.00;103123.50;4952501;28;20059;-86
2022/01/13 04:02:26;;;;;;;52.90;23.92;;;;;;;2.03;100.00;103128.53;4932937;28;20051;-86
2022/01/13 04:04:53;;;;;;;55.13;26.70;;;;;;;2.03;100.00;103125.94;4934152;28;20118;-86
2022/01/13 04:07:27;;;;;;;59.88;25.25;;;;;;;2.01;100.00;103119.81;4930583;28;20406;-87
2022/01/13 04:09:56;;;;;;;52.05;23.77;;;;;;;2.02;100.00;103112.94;4917495;28;20051;-86
2022/01/13 04:12:27;;;;;;;54.65;22.95;;;;;;;2.02;100.00;103105.19;4934204;28;20471;-86
2022/01/13 04:14:57;;;;;;;47.15;22.75;;;;;;;2.07;100.00;103108.97;4915778;28;20439;-85
2022/01/13 04:17:26;;;;;;;55.25;24.15;;;;;;;2.07;100.00;103098.63;4932950;28;20573;-86
2022/01/13 04:19:52;;;;;;;48.13;22.23;;;;;;;2.06;100.00;103091.66;4944269;28;20055;-86
2022/01/13 04:22:20;;;;;;;61.15;23.20;;;;;;;2.06;100.00;103102.00;4946525;28;20242;-86
2022/01/13 04:24:52;;;;;;;44.72;23.23;;;;;;;2.11;100.00;103104.13;4948506;28;20082;-86
2022/01/13 04:27:31;;;;;;;55.38;21.55;;;;;;;2.11;100.00;103108.38;4928977;28;20047;-86
2022/01/13 04:30:22;;;;;;;50.38;22.23;;;;;;;2.11;100.00;103108.38;4935050;28;20054;-86
2022/01/13 04:32:48;;;;;;;48.45;21.67;;;;;;;2.15;100.00;103100.00;4947056;28;20134;-86
2022/01/13 04:35:14;;;;;;;47.53;21.75;;;;;;;2.21;100.00;103108.16;4918700;28;20051;-86
2022/01/13 04:37:41;;;;;;;54.42;23.27;;;;;;;2.19;100.00;103114.03;4936398;28;20161;-86
2022/01/13 04:40:10;;;;;;;45.47;22.65;;;;;;;2.17;100.00;103108.78;4931859;28;20053;-86
2022/01/13 04:42:41;;;;;;;54.33;21.95;;;;;;;2.20;100.00;103113.25;4950114;28;20053;-86
2022/01/13 04:45:08;;;;;;;53.15;21.52;;;;;;;2.22;100.00;103109.09;4932349;28;20058;-86
2022/01/13 04:47:35;;;;;;;58.20;24.50;;;;;;;2.25;100.00;103107.56;4933417;28;20062;-86
2022/01/13 04:50:01;;;;;;;49.65;19.30;;;;;;;2.26;100.00;103109.38;4934825;28;20039;-86
2022/01/13 04:52:28;;;;;;;44.92;19.13;;;;;;;2.29;100.00;103113.84;4935519;28;20074;-86
2022/01/13 04:54:54;;;;;;;46.75;20.70;;;;;;;2.31;100.00;103107.97;4937656;28;20142;-85
2022/01/13 04:57:21;;;;;;;52.63;21.50;;;;;;;2.35;100.00;103111.66;4935455;28;20133;-86
2022/01/13 04:59:48;;;;;;;47.08;20.45;;;;;;;2.34;100.00;103107.28;4937159;28;20054;-86
2022/01/13 05:02:16;;;;;;;44.63;19.83;;;;;;;2.35;100.00;103113.34;4924899;28;20097;-86
2022/01/13 05:04:43;;;;;;;52.78;23.15;;;;;;;2.35;100.00;103132.34;4951796;28;20541;-87
2022/01/13 05:07:09;;;;;;;58.58;24.05;;;;;;;2.35;100.00;103124.59;4922639;28;20516;-85
2022/01/13 05:09:36;;;;;;;45.70;19.08;;;;;;;2.36;100.00;103128.97;4937895;28;20055;-86
2022/01/13 05:12:09;;;;;;;44.17;20.13;;;;;;;2.36;100.00;103122.88;4939745;28;20047;-86
2022/01/13 05:14:37;;;;;;;50.90;20.83;;;;;;;2.40;100.00;103114.53;4942709;28;20128;-86
2022/01/13 05:17:10;;;;;;;56.85;20.67;;;;;;;2.36;100.00;103117.72;4934371;28;20078;-86
2022/01/13 05:19:41;;;;;;;44.53;20.38;;;;;;;2.36;100.00;103115.13;4937259;28;20051;-86
2022/01/13 05:22:20;;;;;;;50.08;22.77;;;;;;;2.35;100.00;103119.41;4936284;28;20070;-87
2022/01/13 05:24:49;;;;;;;45.47;20.70;;;;;;;2.36;100.00;103117.72;4937921;28;20054;-86
2022/01/13 05:27:16;;;;;;;50.90;23.73;;;;;;;2.34;100.00;103122.78;4924059;28;20465;-86
2022/01/13 05:29:46;;;;;;;50.38;20.10;;;;;;;2.34;100.00;103124.50;4934613;28;20113;-86
2022/01/13 05:32:12;;;;;;;55.60;22.05;;;;;;;2.34;100.00;103120.19;4934017;28;20055;-86
2022/01/13 05:34:45;;;;;;;45.28;20.33;;;;;;;2.33;100.00;103125.28;4933216;28;20047;-86
2022/01/13 05:37:12;;;;;;;54.38;23.33;;;;;;;2.31;100.00;103122.59;4937093;28;20273;-86
2022/01/13 05:39:39;;;;;;;52.55;20.88;;;;;;;2.27;100.00;103120.63;4922035;28;20137;-86
2022/01/13 05:42:07;;;;;;;52.13;20.23;;;;;;;2.25;100.00;103115.31;4936589;28;20042;-86
2022/01/13 05:44:38;;;;;;;52.92;22.13;;;;;;;2.29;100.00;103116.44;4936156;28;20047;-86
2022/01/13 05:47:10;;;;;;;51.08;22.17;;;;;;;2.27;100.00;103111.16;4935130;28;20058;-86
2022/01/13 05:49:40;;;;;;;47.05;20.63;;;;;;;2.31;100.00;103120.00;4924111;28;20051;-86
2022/01/13 05:52:14;;;;;;;51.20;20.25;;;;;;;2.30;100.00;103108.75;4936450;28;21158;-86
2022/01/13 05:54:43;;;;;;;;;;;;;;;2.33;100.00;103115.81;4932353;28;20047;-86
2022/01/13 05:57:10;;;;;;;48.22;18.08;;;;;;;2.34;100.00;103120.19;4919461;28;20018;-86
2022/01/13 05:59:37;;;;;;;45.78;21.17;;;;;;;2.31;100.00;103114.84;4917644;28;20658;-86
2022/01/13 06:02:04;;;;;;;49.75;20.33;;;;;;;2.34;100.00;103114.16;4953712;28;20057;-86
2022/01/13 06:04:34;;;;;;;52.97;22.33;;;;;;;2.33;100.00;103102.00;4959604;28;20517;-86
2022/01/13 06:07:01;;;;;;;47.95;21.42;;;;;;;2.29;100.00;103104.41;4956967;28;20050;-86
2022/01/13 06:09:28;;;;;;;54.53;21.20;;;;;;;2.30;100.00;103102.72;4946017;28;20058;-86
2022/01/13 06:11:58;;;;;;;52.88;22.45;;;;;;;2.26;100.00;103101.63;4944333;28;20061;-86
2022/01/13 06:14:25;;;;;;;46.38;20.23;;;;;;;2.25;100.00;103097.22;4956221;28;20161;-86
2022/01/13 06:16:52;;;;;;;48.72;21.70;;;;;;;2.23;100.00;103095.34;4972374;28;20363;-86
2022/01/13 06:19:18;;;;;;;55.67;23.95;;;;;;;2.22;100.00;103093.59;4952113;28;20058;-85
2022/01/13 06:21:46;;;;;;;48.08;22.73;;;;;;;2.22;100.00;103088.41;4972820;28;20118;-86
2022/01/13 06:24:15;;;;;;;47.95;19.67;;;;;;;2.24;100.00;103089.38;4942962;28;20121;-86
2022/01/13 06:26:44;;;;;;;55.90;20.73;;;;;;;2.21;100.00;103091.78;4951710;28;20046;-89
2022/01/13 06:29:11;;;;;;;48.80;20.25;;;;;;;2.19;100.00;103094.28;4937780;28;20059;-86
2022/01/13 06:31:38;;;;;;;46.38;20.85;;;;;;;2.20;100.00;103088.28;4932971;28;20050;-85
2022/01/13 06:34:05;;;;;;;60.25;21.00;;;;;;;2.23;100.00;103091.09;4953790;28;20150;-86
2022/01/13 06:36:31;;;;;;;56.17;21.40;;;;;;;2.22;100.00;103083.25;4955001;28;20078;-85
2022/01/13 06:38:59;;;;;;;46.47;21.00;;;;;;;2.19;100.00;103090.78;4952419;28;20490;-85
2022/01/13 06:41:26;;;;;;;43.90;19.65;;;;;;;2.19;100.00;103094.28;4956048;28;20137;-86
2022/01/13 06:43:53;;;;;;;40.47;18.70;;;;;;;2.19;100.00;103083.94;4932554;28;20129;-86
2022/01/13 06:46:22;;;;;;;42.85;18.30;;;;;;;2.22;100.00;103094.47;4927310;28;20051;-87
2022/01/13 06:48:49;;;;;;;53.38;20.10;;;;;;;2.25;100.00;103097.22;4921960;28;20558;-86
2022/01/13 06:51:15;;;;;;;46.90;20.50;;;;;;;2.28;100.00;103091.38;4936212;28;20053;-85
2022/01/13 06:53:42;;;;;;;41.20;19.35;;;;;;;2.31;100.00;103095.06;4939895;28;20059;-86
2022/01/13 06:56:11;;;;;;;40.22;18.17;;;;;;;2.33;100.00;103095.13;4939729;28;20042;-86
2022/01/13 06:58:44;;;;;;;39.72;18.33;;;;;;;2.34;100.00;103099.53;4937788;28;20067;-85
2022/01/13 07:01:12;;;;;;;44.08;20.38;;;;;;;2.37;100.00;103101.41;4963228;28;20045;-86
2022/01/13 07:03:39;;;;;;;39.90;17.25;;;;;;;2.36;100.00;103097.94;4960214;28;20058;-86
2022/01/13 07:06:06;;;;;;;41.38;17.77;;;;;;;2.37;100.00;103091.94;4942512;28;20042;-84
2022/01/13 07:08:34;;;;;;;44.13;19.42;;;;;;;2.40;100.00;103094.75;4959006;28;20050;-86
2022/01/13 07:11:03;;;;;;;37.30;16.92;;;;;;;2.44;100.00;103095.84;4969042;28;20193;-86
2022/01/13 07:13:34;;;;;;;43.53;18.02;;;;;;;2.41;100.00;103112.06;4957951;28;20376;-86
2022/01/13 07:16:03;;;;;;;40.60;18.88;;;;;;;2.38;100.00;103111.84;4955487;28;20061;-86
2022/01/13 07:18:38;;;;;;;45.42;19.50;;;;;;;2.41;100.00;103117.22;4955057;28;20332;-86
2022/01/13 07:21:06;;;;;;;36.85;17.55;;;;;;;2.42;100.00;103112.94;4944375;28;20050;-85
2022/01/13 07:23:34;;;;;;;44.25;18.00;;;;;;;2.45;100.00;103134.72;4938743;28;20057;-86
2022/01/13 07:26:02;;;;;;;38.25;19.23;;;;;;;2.45;100.00;103115.72;4944219;28;20261;-85
2022/01/13 07:28:31;;;;;;;45.47;18.50;;;;;;;2.47;100.00;103116.72;4954125;28;20050;-86
2022/01/13 07:31:01;;;;;;;36.10;16.60;;;;;;;2.52;100.00;103117.03;4956051;28;20050;-86
2022/01/13 07:33:28;;;;;;;43.65;19.63;;;;;;;2.50;100.00;103121.19;4974252;28;20046;-86
2022/01/13 07:35:56;;;;;;;45.50;19.15;;;;;;;2.50;100.00;103116.03;4939517;28;20498;-86
2022/01/13 07:38:22;;;;;;;41.95;19.83;;;;;;;2.49;100.00;103115.13;4974012;28;20034;-85
2022/01/13 07:40:50;;;;;;;45.85;18.35;;;;;;;2.47;100.00;103112.44;4941327;28;20466;-86
2022/01/13 07:43:23;;;;;;;41.65;19.25;;;;;;;2.54;100.00;103115.41;4957822;28;20355;-86
2022/01/13 07:45:51;;;;;;;46.80;20.00;;;;;;;2.53;100.00;103113.63;4954606;28;20051;-85
2022/01/13 07:48:21;;;;;;;39.20;18.67;;;;;;;2.54;100.00;103118.88;4948243;28;20446;-85
2022/01/13 07:50:49;;;;;;;39.95;17.67;;;;;;;2.56;100.00;103124.19;4925718;28;20050;-85
2022/01/13 07:53:16;;;;;;;40.55;18.83;;;;;;;2.59;100.00;103120.06;4933845;28;20057;-85
2022/01/13 07:55:43;;;;;;;39.85;16.17;;;;;;;2.65;100.00;103128.22;4938033;28;20112;-86
2022/01/13 07:58:11;;;;;;;40.45;19.10;;;;;;;2.64;100.00;103129.03;4937411;28;20142;-85
2022/01/13 08:00:41;;;;;;;37.10;16.63;;;;;;;2.69;100.00;103133.63;4933932;28;20575;-86
2022/01/13 08:03:09;;;;;;;42.38;18.05;;;;;;;2.79;100.00;103128.19;4933929;28;20222;-86
2022/01/13 08:05:36;;;;;;;39.63;17.02;;;;;;;2.76;100.00;103138.38;4934897;28;20044;-86
2022/01/13 08:08:05;;;;;;;43.13;18.17;;;;;;;2.80;100.00;103140.34;4933587;28;20728;-86
2022/01/13 08:10:32;;;;;;;39.97;16.13;;;;;;;2.84;100.00;103146.59;4937176;28;20043;-85
2022/01/13 08:12:58;;;;;;;41.17;16.95;;;;;;;2.88;100.00;103146.91;4934986;28;20043;-86
2022/01/13 08:15:26;;;;;;;35.42;17.77;;;;;;;2.90;100.00;103137.53;4935349;28;20153;-85
2022/01/13 08:20:37;;;;;;;34.92;14.98;;;;;;;2.97;100.00;103149.16;4938134;28;20054;-85
2022/01/13 08:23:04;;;;;;;39.05;16.60;;;;;;;2.99;100.00;103152.75;4922238;28;20085;-86
2022/01/13 08:25:31;;;;;;;31.92;14.10;;;;;;;3.01;100.00;103142.50;4930814;28;20059;-86
2022/01/13 08:28:00;;;;;;;34.05;15.43;;;;;;;3.02;100.00;103152.94;4948757;28;20525;-86
2022/01/13 08:30:27;;;;;;;41.72;18.10;;;;;;;3.02;100.00;103155.50;4917849;28;20042;-85
2022/01/13 08:32:54;;;;;;;33.10;15.40;;;;;;;3.05;100.00;103166.09;4930933;28;20051;-85
2022/01/13 08:35:21;;;;;;;37.50;17.38;;;;;;;3.07;100.00;103166.16;4916464;28;20058;-85
2022/01/13 08:37:47;;;;;;;45.25;17.80;;;;;;;3.08;100.00;103162.78;4930588;28;20051;-85
2022/01/13 08:40:16;;;;;;;38.35;16.15;;;;;;;3.05;100.00;103160.00;4932008;28;20059;-85
2022/01/13 08:42:42;;;;;;;37.13;14.88;;;;;;;3.05;100.00;103160.91;4934155;28;20053;-85
2022/01/13 08:45:13;;;;;;;40.33;17.27;;;;;;;3.03;100.00;103157.31;4929563;28;20062;-85
2022/01/13 08:47:39;;;;;;;42.67;16.08;;;;;;;3.02;100.00;103160.69;4948346;28;20198;-85
2022/01/13 08:50:08;;;;;;;35.95;18.10;;;;;;;3.04;100.00;103164.28;4931148;28;20414;-85
2022/01/13 08:52:38;;;;;;;40.65;17.42;;;;;;;3.05;100.00;103162.59;4948185;28;20586;-86
2022/01/13 08:55:11;;;;;;;38.08;16.08;;;;;;;2.98;100.00;103151.84;4940142;28;20735;-86
2022/01/13 08:57:40;;;;;;;40.80;17.52;;;;;;;2.96;100.00;103162.91;4930899;28;20419;-86
2022/01/13 09:00:12;;;;;;;38.35;17.38;;;;;;;2.98;100.00;103154.44;4948470;28;20099;-85
2022/01/13 09:02:44;;;;;;;40.75;17.73;;;;;;;3.01;100.00;103158.91;4936706;28;20866;-85
2022/01/13 09:05:26;;;;;;;39.42;17.38;;;;;;;3.11;100.00;103145.72;4933324;28;20059;-85
2022/01/13 09:08:15;;;;;;;39.13;16.30;;;;;;;3.07;100.00;103148.06;4933424;28;20067;-85
2022/01/13 09:10:44;;;;;;;49.70;18.17;;;;;;;3.05;100.00;103147.97;4929805;28;20067;-85
2022/01/13 09:13:15;;;;;;;41.65;17.33;;;;;;;3.02;100.00;103152.94;4936671;28;20054;-86
2022/01/13 09:15:57;;;;;;;42.38;18.50;;;;;;;3.05;100.00;103147.06;4937104;28;21140;-86
2022/01/13 09:18:33;;;;;;;43.65;15.77;;;;;;;3.03;100.00;103154.72;4919784;28;20051;-86
2022/01/13 09:21:02;;;;;;;46.05;17.02;;;;;;;3.04;100.00;103156.53;4933590;28;20118;-86
2022/01/13 09:23:36;;;;;;;44.70;17.05;;;;;;;3.06;100.00;103154.91;4940754;28;20054;-85
2022/01/13 09:26:09;;;;;;;45.78;17.65;;;;;;;3.05;100.00;103150.56;4937111;28;20046;-85
2022/01/13 09:28:37;;;;;;;42.35;19.40;;;;;;;3.06;100.00;103162.66;4930730;28;20051;-86
2022/01/13 09:31:08;;;;;;;41.92;17.70;;;;;;;3.13;100.00;103158.78;4925869;28;20384;-86
2022/01/13 09:33:39;;;;;;;37.10;16.88;;;;;;;3.12;100.00;103154.41;4929149;28;20106;-85
2022/01/13 09:36:10;;;;;;;44.90;17.67;;;;;;;3.14;100.00;103157.97;4894327;29;20050;-85
2022/01/13 09:38:41;;;;;;;35.63;17.08;;;;;;;3.24;100.00;103157.75;4915811;29;20051;-85
2022/01/13 09:41:09;;;;;;;36.88;16.20;;;;;;;3.36;100.00;103161.91;4899424;29;20514;-86
2022/01/13 09:43:36;;;;;;;45.55;17.58;;;;;;;3.46;100.00;103157.34;4933789;28;20056;-86
2022/01/13 09:46:12;;;;;;;36.75;17.13;;;;;;;3.60;100.00;103157.31;4917559;29;20043;-86
2022/01/13 09:48:45;;;;;;;34.83;16.73;;;;;;;3.58;100.00;103157.19;4912141;29;20054;-86
2022/01/13 09:51:19;;;;;;;33.35;17.15;;;;;;;3.47;100.00;103155.69;4918522;29;20071;-86
2022/01/13 09:53:46;;;;;;;35.10;15.90;;;;;;;3.39;100.00;103165.56;4899509;29;20052;-86
2022/01/13 09:56:17;;;;;;;39.70;16.52;;;;;;;3.33;100.00;103154.84;4933301;28;20051;-86
2022/01/13 09:58:45;;;;;;;37.88;16.50;;;;;;;3.36;100.00;103156.72;4903737;29;20060;-85
2022/01/13 10:01:26;;;;;;;40.25;17.10;;;;;;;3.47;100.00;103159.16;4920121;28;22721;-86
2022/01/13 10:03:56;;;;;;;38.92;15.60;;;;;;;3.61;100.00;103159.09;4935674;28;20054;-86
2022/01/13 10:06:27;;;;;;;39.35;16.50;;;;;;;3.74;100.00;103159.03;4946717;28;20348;-87
2022/01/13 10:09:00;;;;;;;45.00;18.08;;;;;;;3.86;100.00;103158.88;4937582;28;20051;-86
2022/01/13 10:11:35;;;;;;;35.75;15.73;;;;;;;3.97;100.00;103160.38;4936148;28;20642;-86
2022/01/13 10:17:16;;;;;;;40.00;18.13;;;;;;;4.23;100.00;103157.53;4936011;28;20047;-86
2022/01/13 10:19:50;;;;;;;44.55;16.70;;;;;;;4.39;100.00;103164.47;4931566;28;20059;-86
2022/01/13 10:22:24;;;;;;;39.00;15.82;;;;;;;4.50;99.35;103163.41;4936777;28;20564;-86
2022/01/13 10:24:55;;;;;;;35.72;16.45;;;;;;;4.54;98.89;103167.94;4932247;28;20051;-86
2022/01/13 10:27:34;;;;;;;40.15;16.20;;;;;;;4.63;99.03;103155.47;4932992;28;20051;-86
2022/01/13 10:30:38;;;;;;;39.47;17.15;;;;;;;4.60;97.83;103151.81;4937852;28;20142;-86
2022/01/13 10:33:25;;;;;;;34.75;16.75;;;;;;;4.54;98.15;103143.72;4933485;28;20039;-87
2022/01/13 10:36:09;;;;;;;;;;;;;;;;;;;;;
2022/01/13 10:38:54;;;;;;;40.38;16.90;;;;;;;4.49;98.49;103147.75;4951237;28;20059;-86
2022/01/13 10:41:37;;;;;;;43.95;17.25;;;;;;;4.52;98.38;103138.41;4952723;28;20526;-86
2022/01/13 10:44:18;;;;;;;43.55;17.40;;;;;;;4.59;98.65;103143.16;4935416;28;21628;-86
2022/01/13 10:47:06;;;;;;;40.38;17.55;;;;;;;4.68;97.54;103127.22;4920834;28;20051;-86
2022/01/13 10:49:38;;;;;;;40.20;17.90;;;;;;;4.85;96.57;103128.13;4935884;28;20408;-85
2022/01/13 10:52:31;;;;;;;43.38;16.42;;;;;;;5.08;95.22;103124.16;4934743;28;20138;-85
2022/01/13 10:55:08;;;;;;;44.53;19.70;;;;;;;5.26;94.16;103115.59;4935126;28;20098;-86
2022/01/13 10:57:37;;;;;;;40.45;17.00;;;;;;;5.35;92.48;103115.19;4952046;28;20076;-86
2022/01/13 11:00:21;;;;;;;37.85;17.67;;;;;;;5.47;92.65;103113.22;4941325;28;20055;-86
2022/01/13 11:03:06;;;;;;;38.70;17.30;;;;;;;5.55;92.16;103124.00;4934932;28;20077;-86
2022/01/13 11:06:09;;;;;;;42.55;18.77;;;;;;;5.65;91.81;103122.78;4956045;28;20083;-86
2022/01/13 11:08:45;;;;;;;41.58;16.52;;;;;;;5.66;90.55;103117.66;4929996;28;20127;-86
2022/01/13 11:11:29;;;;;;;37.90;17.00;;;;;;;5.71;89.43;103117.88;4939470;28;20043;-86
2022/01/13 11:14:09;;;;;;;39.55;17.92;;;;;;;5.69;90.20;103111.72;4942638;28;20050;-86
2022/01/13 11:16:38;;;;;;;42.08;18.58;;;;;;;5.56;90.48;103105.88;4964701;28;20047;-86
2022/01/13 11:19:09;;;;;;;42.50;17.65;;;;;;;5.42;90.94;103102.59;4974680;28;20097;-86
2022/01/13 11:21:42;;;;;;;42.97;17.27;;;;;;;5.27;91.93;103105.28;4947138;28;20164;-86
2022/01/13 11:24:12;;;;;;;41.80;18.92;;;;;;;5.13;92.46;103106.25;4976651;28;20050;-86
2022/01/13 11:26:41;;;;;;;38.95;17.92;;;;;;;5.01;92.76;103095.22;4949272;28;20050;-86
2022/01/13 11:29:08;;;;;;;44.30;18.05;;;;;;;4.95;93.35;103086.31;4973955;28;20367;-86
2022/01/13 11:31:35;;;;;;;39.92;19.08;;;;;;;4.89;93.76;103091.16;4957475;28;20047;-86
2022/01/13 11:34:02;;;;;;;48.13;18.52;;;;;;;4.85;94.14;103086.63;4953061;28;20046;-86
2022/01/13 11:36:30;;;;;;;43.08;17.52;;;;;;;4.81;94.48;103079.47;4958912;28;20612;-86
2022/01/13 11:39:05;;;;;;;32.53;14.75;;;;;;;4.80;93.48;103080.28;4943517;28;20047;-86
2022/01/13 11:41:32;;;;;;;34.47;17.88;;;;;;;4.75;93.31;103080.03;4951341;28;20054;-85